sensor_id;sensor_type;location;lat;lon;timestamp;P1;durP1;ratioP1;P2;durP2;ratioP2
4704;SDS011;2366;51.332;6.610;2023-04-21T00:00:13;59.63;;;38.10;;
4704;SDS011;2366;51.332;6.610;2023-04-21T00:02:39;76.73;;;46.43;;
4704;SDS011;2366;51.332;6.610;2023-04-21T00:05:06;73.43;;;45.27;;
4704;SDS011;2366;51.332;6.610;2023-04-21T00:07:37;86.20;;;46.47;;
4704;SDS011;2366;51.332;6.610;2023-04-21T00:10:04;81.25;;;49.60;;
4704;SDS011;2366;51.332;6.610;2023-04-21T00:12:31;88.85;;;48.13;;
4704;SDS011;2366;51.332;6.610;2023-04-21T00:14:56;81.40;;;47.47;;
4704;SDS011;2366;51.332;6.610;2023-04-21T00:17:22;75.77;;;46.73;;
4704;SDS011;2366;51.332;6.610;2023-04-21T00:19:47;85.37;;;49.47;;
4704;SDS011;2366;51.332;6.610;2023-04-21T00:22:12;89.80;;;48.83;;
4704;SDS011;2366;51.332;6.610;2023-04-21T00:24:40;81.47;;;45.83;;
4704;SDS011;2366;51.332;6.610;2023-04-21T00:27:05;86.53;;;47.88;;
4704;SDS011;2366;51.332;6.610;2023-04-21T00:29:31;85.37;;;47.03;;
4704;SDS011;2366;51.332;6.610;2023-04-21T00:31:56;91.27;;;44.60;;
4704;SDS011;2366;51.332;6.610;2023-04-21T00:34:21;87.43;;;49.07;;
4704;SDS011;2366;51.332;6.610;2023-04-21T00:36:47;82.33;;;49.13;;
4704;SDS011;2366;51.332;6.610;2023-04-21T00:39:12;74.13;;;47.47;;
4704;SDS011;2366;51.332;6.610;2023-04-21T00:41:38;84.60;;;49.03;;
4704;SDS011;2366;51.332;6.610;2023-04-21T00:44:07;94.03;;;50.43;;
4704;SDS011;2366;51.332;6.610;2023-04-21T00:46:34;103.72;;;48.53;;
4704;SDS011;2366;51.332;6.610;2023-04-21T00:49:02;86.32;;;47.15;;
4704;SDS011;2366;51.332;6.610;2023-04-21T00:51:29;91.40;;;48.63;;
4704;SDS011;2366;51.332;6.610;2023-04-21T00:53:57;85.38;;;48.05;;
4704;SDS011;2366;51.332;6.610;2023-04-21T00:56:22;91.57;;;47.30;;
4704;SDS011;2366;51.332;6.610;2023-04-21T00:58:49;79.70;;;48.67;;
4704;SDS011;2366;51.332;6.610;2023-04-21T01:01:15;85.93;;;46.40;;
4704;SDS011;2366;51.332;6.610;2023-04-21T01:03:41;90.38;;;48.03;;
4704;SDS011;2366;51.332;6.610;2023-04-21T01:06:07;89.80;;;48.73;;
4704;SDS011;2366;51.332;6.610;2023-04-21T01:08:33;85.28;;;48.72;;
4704;SDS011;2366;51.332;6.610;2023-04-21T01:10:59;94.10;;;51.53;;
4704;SDS011;2366;51.332;6.610;2023-04-21T01:13:24;99.47;;;51.40;;
4704;SDS011;2366;51.332;6.610;2023-04-21T01:15:50;103.43;;;52.80;;
4704;SDS011;2366;51.332;6.610;2023-04-21T01:18:15;83.70;;;50.30;;
4704;SDS011;2366;51.332;6.610;2023-04-21T01:20:42;98.53;;;49.08;;
4704;SDS011;2366;51.332;6.610;2023-04-21T01:23:08;86.35;;;48.92;;
4704;SDS011;2366;51.332;6.610;2023-04-21T01:25:34;101.13;;;52.17;;
4704;SDS011;2366;51.332;6.610;2023-04-21T01:28:06;95.82;;;50.25;;
4704;SDS011;2366;51.332;6.610;2023-04-21T01:30:31;93.10;;;51.87;;
4704;SDS011;2366;51.332;6.610;2023-04-21T01:32:56;87.97;;;50.67;;
4704;SDS011;2366;51.332;6.610;2023-04-21T01:35:24;93.47;;;50.55;;
4704;SDS011;2366;51.332;6.610;2023-04-21T01:37:49;95.57;;;50.90;;
4704;SDS011;2366;51.332;6.610;2023-04-21T01:40:15;96.10;;;49.50;;
4704;SDS011;2366;51.332;6.610;2023-04-21T01:42:40;87.70;;;48.97;;
4704;SDS011;2366;51.332;6.610;2023-04-21T01:45:07;92.38;;;49.83;;
4704;SDS011;2366;51.332;6.610;2023-04-21T01:47:33;88.65;;;47.58;;
4704;SDS011;2366;51.332;6.610;2023-04-21T01:49:58;94.60;;;49.90;;
4704;SDS011;2366;51.332;6.610;2023-04-21T01:52:24;93.87;;;52.17;;
4704;SDS011;2366;51.332;6.610;2023-04-21T01:54:49;88.47;;;50.40;;
4704;SDS011;2366;51.332;6.610;2023-04-21T01:57:15;102.97;;;48.83;;
4704;SDS011;2366;51.332;6.610;2023-04-21T01:59:41;96.47;;;51.40;;
4704;SDS011;2366;51.332;6.610;2023-04-21T02:02:06;93.67;;;48.93;;
4704;SDS011;2366;51.332;6.610;2023-04-21T02:04:32;93.80;;;46.73;;
4704;SDS011;2366;51.332;6.610;2023-04-21T02:06:57;84.97;;;45.60;;
4704;SDS011;2366;51.332;6.610;2023-04-21T02:09:22;86.00;;;46.43;;
4704;SDS011;2366;51.332;6.610;2023-04-21T02:11:48;77.90;;;45.93;;
4704;SDS011;2366;51.332;6.610;2023-04-21T02:14:13;86.53;;;48.43;;
4704;SDS011;2366;51.332;6.610;2023-04-21T02:16:38;76.73;;;43.67;;
4704;SDS011;2366;51.332;6.610;2023-04-21T02:19:04;95.67;;;44.70;;
4704;SDS011;2366;51.332;6.610;2023-04-21T02:21:30;80.63;;;48.03;;
4704;SDS011;2366;51.332;6.610;2023-04-21T02:23:56;89.32;;;47.67;;
4704;SDS011;2366;51.332;6.610;2023-04-21T02:26:22;88.97;;;48.80;;
4704;SDS011;2366;51.332;6.610;2023-04-21T02:28:47;91.17;;;46.33;;
4704;SDS011;2366;51.332;6.610;2023-04-21T02:31:14;90.45;;;51.25;;
4704;SDS011;2366;51.332;6.610;2023-04-21T02:33:40;89.10;;;46.50;;
4704;SDS011;2366;51.332;6.610;2023-04-21T02:36:05;77.63;;;43.50;;
4704;SDS011;2366;51.332;6.610;2023-04-21T02:38:31;88.90;;;50.63;;
4704;SDS011;2366;51.332;6.610;2023-04-21T02:40:56;92.57;;;46.73;;
4704;SDS011;2366;51.332;6.610;2023-04-21T02:43:22;88.67;;;47.33;;
4704;SDS011;2366;51.332;6.610;2023-04-21T02:45:48;83.80;;;46.70;;
4704;SDS011;2366;51.332;6.610;2023-04-21T02:48:13;84.00;;;46.43;;
4704;SDS011;2366;51.332;6.610;2023-04-21T02:50:38;75.93;;;43.93;;
4704;SDS011;2366;51.332;6.610;2023-04-21T02:53:04;80.40;;;46.07;;
4704;SDS011;2366;51.332;6.610;2023-04-21T02:55:30;84.80;;;47.40;;
4704;SDS011;2366;51.332;6.610;2023-04-21T02:57:55;88.67;;;45.60;;
4704;SDS011;2366;51.332;6.610;2023-04-21T03:00:20;99.57;;;50.33;;
4704;SDS011;2366;51.332;6.610;2023-04-21T03:02:46;82.23;;;49.90;;
4704;SDS011;2366;51.332;6.610;2023-04-21T03:05:11;86.80;;;44.50;;
4704;SDS011;2366;51.332;6.610;2023-04-21T03:07:37;93.40;;;48.80;;
4704;SDS011;2366;51.332;6.610;2023-04-21T03:10:03;89.10;;;47.90;;
4704;SDS011;2366;51.332;6.610;2023-04-21T03:12:30;104.78;;;51.35;;
4704;SDS011;2366;51.332;6.610;2023-04-21T03:14:55;97.23;;;50.83;;
4704;SDS011;2366;51.332;6.610;2023-04-21T03:17:21;98.30;;;52.80;;
4704;SDS011;2366;51.332;6.610;2023-04-21T03:19:46;104.93;;;52.70;;
4704;SDS011;2366;51.332;6.610;2023-04-21T03:22:11;97.77;;;51.10;;
4704;SDS011;2366;51.332;6.610;2023-04-21T03:24:37;94.40;;;51.60;;
4704;SDS011;2366;51.332;6.610;2023-04-21T03:27:04;108.77;;;52.23;;
4704;SDS011;2366;51.332;6.610;2023-04-21T03:29:30;113.55;;;53.97;;
4704;SDS011;2366;51.332;6.610;2023-04-21T03:31:55;97.67;;;50.30;;
4704;SDS011;2366;51.332;6.610;2023-04-21T03:34:21;100.03;;;49.93;;
4704;SDS011;2366;51.332;6.610;2023-04-21T03:36:46;96.80;;;51.83;;
4704;SDS011;2366;51.332;6.610;2023-04-21T03:39:11;102.93;;;54.17;;
4704;SDS011;2366;51.332;6.610;2023-04-21T03:41:37;98.77;;;52.13;;
4704;SDS011;2366;51.332;6.610;2023-04-21T03:44:02;110.30;;;51.23;;
4704;SDS011;2366;51.332;6.610;2023-04-21T03:46:27;102.07;;;53.73;;
4704;SDS011;2366;51.332;6.610;2023-04-21T03:48:53;103.10;;;53.83;;
4704;SDS011;2366;51.332;6.610;2023-04-21T03:51:18;107.80;;;52.50;;
4704;SDS011;2366;51.332;6.610;2023-04-21T03:53:43;104.77;;;52.00;;
4704;SDS011;2366;51.332;6.610;2023-04-21T03:56:09;106.23;;;52.30;;
4704;SDS011;2366;51.332;6.610;2023-04-21T03:58:34;100.00;;;51.63;;
4704;SDS011;2366;51.332;6.610;2023-04-21T04:01:00;103.10;;;53.20;;
4704;SDS011;2366;51.332;6.610;2023-04-21T04:03:26;95.57;;;53.40;;
4704;SDS011;2366;51.332;6.610;2023-04-21T04:05:51;108.33;;;54.63;;
4704;SDS011;2366;51.332;6.610;2023-04-21T04:08:16;109.50;;;52.17;;
4704;SDS011;2366;51.332;6.610;2023-04-21T04:10:42;104.93;;;52.70;;
4704;SDS011;2366;51.332;6.610;2023-04-21T04:13:07;98.73;;;49.60;;
4704;SDS011;2366;51.332;6.610;2023-04-21T04:15:33;104.57;;;51.60;;
4704;SDS011;2366;51.332;6.610;2023-04-21T04:17:58;103.37;;;53.93;;
4704;SDS011;2366;51.332;6.610;2023-04-21T04:20:24;103.27;;;52.73;;
4704;SDS011;2366;51.332;6.610;2023-04-21T04:22:50;98.20;;;50.03;;
4704;SDS011;2366;51.332;6.610;2023-04-21T04:25:15;112.13;;;51.03;;
4704;SDS011;2366;51.332;6.610;2023-04-21T04:27:41;105.87;;;51.90;;
4704;SDS011;2366;51.332;6.610;2023-04-21T04:30:08;105.13;;;50.92;;
4704;SDS011;2366;51.332;6.610;2023-04-21T04:32:34;107.15;;;50.92;;
4704;SDS011;2366;51.332;6.610;2023-04-21T04:35:03;103.18;;;50.33;;
4704;SDS011;2366;51.332;6.610;2023-04-21T04:37:29;100.38;;;52.67;;
4704;SDS011;2366;51.332;6.610;2023-04-21T04:39:55;101.77;;;50.20;;
4704;SDS011;2366;51.332;6.610;2023-04-21T04:42:21;109.05;;;50.08;;
4704;SDS011;2366;51.332;6.610;2023-04-21T04:44:51;99.65;;;48.53;;
4704;SDS011;2366;51.332;6.610;2023-04-21T04:47:17;97.38;;;49.60;;
4704;SDS011;2366;51.332;6.610;2023-04-21T04:49:42;103.33;;;50.43;;
4704;SDS011;2366;51.332;6.610;2023-04-21T04:52:08;100.83;;;49.73;;
4704;SDS011;2366;51.332;6.610;2023-04-21T04:54:33;100.80;;;50.30;;
4704;SDS011;2366;51.332;6.610;2023-04-21T04:56:59;98.93;;;48.57;;
4704;SDS011;2366;51.332;6.610;2023-04-21T04:59:24;105.80;;;50.90;;
4704;SDS011;2366;51.332;6.610;2023-04-21T05:01:50;103.10;;;52.47;;
4704;SDS011;2366;51.332;6.610;2023-04-21T05:04:16;105.22;;;50.40;;
4704;SDS011;2366;51.332;6.610;2023-04-21T05:06:41;94.27;;;50.27;;
4704;SDS011;2366;51.332;6.610;2023-04-21T05:09:07;97.23;;;49.20;;
4704;SDS011;2366;51.332;6.610;2023-04-21T05:11:34;94.35;;;50.88;;
4704;SDS011;2366;51.332;6.610;2023-04-21T05:13:59;102.20;;;49.40;;
4704;SDS011;2366;51.332;6.610;2023-04-21T05:16:25;98.83;;;50.60;;
4704;SDS011;2366;51.332;6.610;2023-04-21T05:18:50;97.50;;;49.03;;
4704;SDS011;2366;51.332;6.610;2023-04-21T05:21:24;90.03;;;51.00;;
4704;SDS011;2366;51.332;6.610;2023-04-21T05:23:57;95.72;;;49.90;;
4704;SDS011;2366;51.332;6.610;2023-04-21T05:26:23;88.05;;;50.95;;
4704;SDS011;2366;51.332;6.610;2023-04-21T05:28:51;80.78;;;46.80;;
4704;SDS011;2366;51.332;6.610;2023-04-21T05:31:20;74.53;;;46.75;;
4704;SDS011;2366;51.332;6.610;2023-04-21T05:33:46;59.60;;;41.30;;
4704;SDS011;2366;51.332;6.610;2023-04-21T05:36:12;52.10;;;36.80;;
4704;SDS011;2366;51.332;6.610;2023-04-21T05:38:37;51.90;;;37.33;;
4704;SDS011;2366;51.332;6.610;2023-04-21T05:41:03;44.43;;;32.93;;
4704;SDS011;2366;51.332;6.610;2023-04-21T05:43:29;46.33;;;31.63;;
4704;SDS011;2366;51.332;6.610;2023-04-21T05:45:57;45.92;;;32.20;;
4704;SDS011;2366;51.332;6.610;2023-04-21T05:48:23;42.75;;;29.25;;
4704;SDS011;2366;51.332;6.610;2023-04-21T05:50:49;49.47;;;31.20;;
4704;SDS011;2366;51.332;6.610;2023-04-21T05:53:15;45.70;;;31.40;;
4704;SDS011;2366;51.332;6.610;2023-04-21T05:55:41;45.33;;;33.08;;
4704;SDS011;2366;51.332;6.610;2023-04-21T05:58:06;47.23;;;32.73;;
4704;SDS011;2366;51.332;6.610;2023-04-21T06:00:31;42.43;;;32.23;;
4704;SDS011;2366;51.332;6.610;2023-04-21T06:02:57;49.60;;;32.20;;
4704;SDS011;2366;51.332;6.610;2023-04-21T06:05:22;48.50;;;34.67;;
4704;SDS011;2366;51.332;6.610;2023-04-21T06:07:48;50.63;;;36.87;;
4704;SDS011;2366;51.332;6.610;2023-04-21T06:10:13;47.47;;;33.03;;
4704;SDS011;2366;51.332;6.610;2023-04-21T06:12:38;46.53;;;29.57;;
4704;SDS011;2366;51.332;6.610;2023-04-21T06:15:04;37.53;;;27.50;;
4704;SDS011;2366;51.332;6.610;2023-04-21T06:17:30;40.17;;;28.42;;
4704;SDS011;2366;51.332;6.610;2023-04-21T06:19:55;36.37;;;27.00;;
4704;SDS011;2366;51.332;6.610;2023-04-21T06:22:24;37.27;;;26.53;;
4704;SDS011;2366;51.332;6.610;2023-04-21T06:24:49;33.03;;;24.10;;
4704;SDS011;2366;51.332;6.610;2023-04-21T06:27:15;31.60;;;24.70;;
4704;SDS011;2366;51.332;6.610;2023-04-21T06:29:41;36.80;;;27.10;;
4704;SDS011;2366;51.332;6.610;2023-04-21T06:32:07;34.33;;;25.73;;
4704;SDS011;2366;51.332;6.610;2023-04-21T06:34:33;35.30;;;27.52;;
4704;SDS011;2366;51.332;6.610;2023-04-21T06:36:58;36.50;;;26.63;;
4704;SDS011;2366;51.332;6.610;2023-04-21T06:39:24;39.97;;;26.70;;
4704;SDS011;2366;51.332;6.610;2023-04-21T06:41:49;36.53;;;27.70;;
4704;SDS011;2366;51.332;6.610;2023-04-21T06:44:14;31.97;;;24.47;;
4704;SDS011;2366;51.332;6.610;2023-04-21T06:46:40;29.40;;;22.70;;
4704;SDS011;2366;51.332;6.610;2023-04-21T06:49:08;31.43;;;24.20;;
4704;SDS011;2366;51.332;6.610;2023-04-21T06:51:34;31.48;;;24.55;;
4704;SDS011;2366;51.332;6.610;2023-04-21T06:54:01;35.13;;;26.50;;
4704;SDS011;2366;51.332;6.610;2023-04-21T06:56:27;36.90;;;25.37;;
4704;SDS011;2366;51.332;6.610;2023-04-21T06:58:52;32.20;;;24.03;;
4704;SDS011;2366;51.332;6.610;2023-04-21T07:01:17;28.70;;;23.10;;
4704;SDS011;2366;51.332;6.610;2023-04-21T07:03:43;32.93;;;25.87;;
4704;SDS011;2366;51.332;6.610;2023-04-21T07:06:09;29.27;;;23.47;;
4704;SDS011;2366;51.332;6.610;2023-04-21T07:08:34;33.50;;;25.37;;
4704;SDS011;2366;51.332;6.610;2023-04-21T07:11:00;34.53;;;27.03;;
4704;SDS011;2366;51.332;6.610;2023-04-21T07:13:25;33.03;;;25.07;;
4704;SDS011;2366;51.332;6.610;2023-04-21T07:15:51;33.60;;;25.80;;
4704;SDS011;2366;51.332;6.610;2023-04-21T07:18:16;38.43;;;27.90;;
4704;SDS011;2366;51.332;6.610;2023-04-21T07:20:42;35.03;;;26.80;;
4704;SDS011;2366;51.332;6.610;2023-04-21T07:23:07;33.77;;;25.00;;
4704;SDS011;2366;51.332;6.610;2023-04-21T07:25:32;30.83;;;25.00;;
4704;SDS011;2366;51.332;6.610;2023-04-21T07:27:58;34.47;;;23.70;;
4704;SDS011;2366;51.332;6.610;2023-04-21T07:30:23;33.63;;;26.80;;
4704;SDS011;2366;51.332;6.610;2023-04-21T07:32:48;31.20;;;24.77;;
4704;SDS011;2366;51.332;6.610;2023-04-21T07:35:14;30.60;;;25.47;;
4704;SDS011;2366;51.332;6.610;2023-04-21T07:37:40;28.23;;;23.33;;
4704;SDS011;2366;51.332;6.610;2023-04-21T07:40:08;28.80;;;22.73;;
4704;SDS011;2366;51.332;6.610;2023-04-21T07:42:34;25.20;;;21.88;;
4704;SDS011;2366;51.332;6.610;2023-04-21T07:45:00;32.43;;;24.33;;
4704;SDS011;2366;51.332;6.610;2023-04-21T07:47:26;31.67;;;25.23;;
4704;SDS011;2366;51.332;6.610;2023-04-21T07:49:52;37.03;;;23.10;;
4704;SDS011;2366;51.332;6.610;2023-04-21T07:52:18;32.50;;;25.87;;
4704;SDS011;2366;51.332;6.610;2023-04-21T07:54:43;32.27;;;23.00;;
4704;SDS011;2366;51.332;6.610;2023-04-21T07:57:08;28.20;;;21.50;;
4704;SDS011;2366;51.332;6.610;2023-04-21T07:59:34;28.43;;;21.83;;
4704;SDS011;2366;51.332;6.610;2023-04-21T08:01:59;26.87;;;20.70;;
4704;SDS011;2366;51.332;6.610;2023-04-21T08:04:25;25.70;;;21.73;;
4704;SDS011;2366;51.332;6.610;2023-04-21T08:06:51;33.93;;;24.10;;
4704;SDS011;2366;51.332;6.610;2023-04-21T08:09:16;25.00;;;21.03;;
4704;SDS011;2366;51.332;6.610;2023-04-21T08:11:42;29.00;;;21.70;;
4704;SDS011;2366;51.332;6.610;2023-04-21T08:14:07;25.50;;;21.67;;
4704;SDS011;2366;51.332;6.610;2023-04-21T08:16:35;26.10;;;21.13;;
4704;SDS011;2366;51.332;6.610;2023-04-21T08:19:01;23.35;;;20.75;;
4704;SDS011;2366;51.332;6.610;2023-04-21T08:21:27;25.50;;;22.23;;
4704;SDS011;2366;51.332;6.610;2023-04-21T08:23:52;25.67;;;20.10;;
4704;SDS011;2366;51.332;6.610;2023-04-21T08:26:19;23.00;;;20.08;;
4704;SDS011;2366;51.332;6.610;2023-04-21T08:28:46;24.55;;;21.42;;
4704;SDS011;2366;51.332;6.610;2023-04-21T08:31:13;23.45;;;19.02;;
4704;SDS011;2366;51.332;6.610;2023-04-21T08:33:39;22.83;;;18.07;;
4704;SDS011;2366;51.332;6.610;2023-04-21T08:36:05;28.70;;;18.27;;
4704;SDS011;2366;51.332;6.610;2023-04-21T08:38:31;22.07;;;19.57;;
4704;SDS011;2366;51.332;6.610;2023-04-21T08:40:57;24.97;;;21.37;;
4704;SDS011;2366;51.332;6.610;2023-04-21T08:43:23;24.30;;;20.58;;
4704;SDS011;2366;51.332;6.610;2023-04-21T08:45:49;22.70;;;17.80;;
4704;SDS011;2366;51.332;6.610;2023-04-21T08:48:15;24.37;;;20.57;;
4704;SDS011;2366;51.332;6.610;2023-04-21T08:50:44;23.67;;;19.67;;
4704;SDS011;2366;51.332;6.610;2023-04-21T08:53:12;26.00;;;20.20;;
4704;SDS011;2366;51.332;6.610;2023-04-21T08:55:37;25.77;;;20.50;;
4704;SDS011;2366;51.332;6.610;2023-04-21T08:58:04;23.23;;;19.23;;
4704;SDS011;2366;51.332;6.610;2023-04-21T09:00:30;24.15;;;19.92;;
4704;SDS011;2366;51.332;6.610;2023-04-21T09:02:57;24.10;;;21.50;;
4704;SDS011;2366;51.332;6.610;2023-04-21T09:05:25;29.73;;;23.10;;
4704;SDS011;2366;51.332;6.610;2023-04-21T09:08:08;27.45;;;20.42;;
4704;SDS011;2366;51.332;6.610;2023-04-21T09:10:45;22.00;;;19.55;;
4704;SDS011;2366;51.332;6.610;2023-04-21T09:13:13;24.77;;;20.80;;
4704;SDS011;2366;51.332;6.610;2023-04-21T09:15:39;28.13;;;20.60;;
4704;SDS011;2366;51.332;6.610;2023-04-21T09:18:13;23.63;;;20.40;;
4704;SDS011;2366;51.332;6.610;2023-04-21T09:20:40;28.48;;;22.08;;
4704;SDS011;2366;51.332;6.610;2023-04-21T09:23:07;26.90;;;22.13;;
4704;SDS011;2366;51.332;6.610;2023-04-21T09:25:33;28.43;;;20.90;;
4704;SDS011;2366;51.332;6.610;2023-04-21T09:27:59;26.83;;;21.40;;
4704;SDS011;2366;51.332;6.610;2023-04-21T09:30:25;25.88;;;21.08;;
4704;SDS011;2366;51.332;6.610;2023-04-21T09:32:51;28.23;;;21.47;;
4704;SDS011;2366;51.332;6.610;2023-04-21T09:35:21;31.23;;;23.30;;
4704;SDS011;2366;51.332;6.610;2023-04-21T09:37:47;24.77;;;21.17;;
4704;SDS011;2366;51.332;6.610;2023-04-21T09:40:13;29.60;;;22.43;;
4704;SDS011;2366;51.332;6.610;2023-04-21T09:42:39;28.85;;;22.65;;
4704;SDS011;2366;51.332;6.610;2023-04-21T09:45:06;27.70;;;22.38;;
4704;SDS011;2366;51.332;6.610;2023-04-21T09:47:34;28.25;;;23.13;;
4704;SDS011;2366;51.332;6.610;2023-04-21T09:50:05;26.50;;;23.13;;
4704;SDS011;2366;51.332;6.610;2023-04-21T09:52:32;25.75;;;21.30;;
4704;SDS011;2366;51.332;6.610;2023-04-21T09:55:00;30.60;;;21.77;;
4704;SDS011;2366;51.332;6.610;2023-04-21T09:57:28;24.40;;;21.90;;
4704;SDS011;2366;51.332;6.610;2023-04-21T09:59:59;27.70;;;21.48;;
4704;SDS011;2366;51.332;6.610;2023-04-21T10:02:29;27.17;;;23.00;;
4704;SDS011;2366;51.332;6.610;2023-04-21T10:04:55;33.42;;;22.92;;
4704;SDS011;2366;51.332;6.610;2023-04-21T10:07:21;30.30;;;24.27;;
4704;SDS011;2366;51.332;6.610;2023-04-21T10:12:19;28.23;;;22.27;;
4704;SDS011;2366;51.332;6.610;2023-04-21T10:14:49;27.92;;;22.80;;
4704;SDS011;2366;51.332;6.610;2023-04-21T10:17:16;34.35;;;24.10;;
4704;SDS011;2366;51.332;6.610;2023-04-21T10:19:49;26.60;;;21.27;;
4704;SDS011;2366;51.332;6.610;2023-04-21T10:22:39;29.00;;;23.80;;
4704;SDS011;2366;51.332;6.610;2023-04-21T10:25:07;27.17;;;22.13;;
4704;SDS011;2366;51.332;6.610;2023-04-21T10:27:35;33.13;;;22.85;;
4704;SDS011;2366;51.332;6.610;2023-04-21T10:30:17;25.63;;;22.50;;
4704;SDS011;2366;51.332;6.610;2023-04-21T10:32:44;25.58;;;22.08;;
4704;SDS011;2366;51.332;6.610;2023-04-21T10:35:20;26.25;;;22.10;;
4704;SDS011;2366;51.332;6.610;2023-04-21T10:37:47;26.67;;;22.92;;
4704;SDS011;2366;51.332;6.610;2023-04-21T10:42:54;27.75;;;22.05;;
4704;SDS011;2366;51.332;6.610;2023-04-21T10:45:19;25.07;;;20.97;;
4704;SDS011;2366;51.332;6.610;2023-04-21T10:47:45;28.70;;;23.90;;
4704;SDS011;2366;51.332;6.610;2023-04-21T10:50:28;31.20;;;21.67;;
4704;SDS011;2366;51.332;6.610;2023-04-21T10:52:56;34.92;;;22.77;;
4704;SDS011;2366;51.332;6.610;2023-04-21T10:55:26;25.23;;;19.63;;
4704;SDS011;2366;51.332;6.610;2023-04-21T10:57:53;31.90;;;23.05;;
4704;SDS011;2366;51.332;6.610;2023-04-21T11:00:21;29.67;;;22.83;;
4704;SDS011;2366;51.332;6.610;2023-04-21T11:02:54;24.20;;;20.95;;
4704;SDS011;2366;51.332;6.610;2023-04-21T11:08:13;26.95;;;21.60;;
4704;SDS011;2366;51.332;6.610;2023-04-21T11:10:50;28.45;;;20.30;;
4704;SDS011;2366;51.332;6.610;2023-04-21T11:13:19;25.00;;;20.35;;
4704;SDS011;2366;51.332;6.610;2023-04-21T11:15:55;35.40;;;22.40;;
4704;SDS011;2366;51.332;6.610;2023-04-21T11:18:31;25.15;;;22.05;;
4704;SDS011;2366;51.332;6.610;2023-04-21T11:21:07;28.23;;;21.75;;
4704;SDS011;2366;51.332;6.610;2023-04-21T11:23:48;31.23;;;23.42;;
4704;SDS011;2366;51.332;6.610;2023-04-21T11:26:17;25.90;;;20.67;;
4704;SDS011;2366;51.332;6.610;2023-04-21T11:28:46;25.05;;;20.15;;
4704;SDS011;2366;51.332;6.610;2023-04-21T11:31:13;30.50;;;25.73;;
4704;SDS011;2366;51.332;6.610;2023-04-21T11:33:39;26.48;;;22.70;;
4704;SDS011;2366;51.332;6.610;2023-04-21T11:36:05;23.27;;;19.90;;
4704;SDS011;2366;51.332;6.610;2023-04-21T11:38:40;28.23;;;21.15;;
4704;SDS011;2366;51.332;6.610;2023-04-21T11:41:06;25.40;;;21.77;;
4704;SDS011;2366;51.332;6.610;2023-04-21T11:43:34;26.95;;;21.77;;
4704;SDS011;2366;51.332;6.610;2023-04-21T11:46:16;30.20;;;19.77;;
4704;SDS011;2366;51.332;6.610;2023-04-21T11:48:43;31.80;;;18.85;;
4704;SDS011;2366;51.332;6.610;2023-04-21T11:51:18;31.83;;;21.77;;
4704;SDS011;2366;51.332;6.610;2023-04-21T11:53:46;29.40;;;21.75;;
4704;SDS011;2366;51.332;6.610;2023-04-21T11:56:15;24.30;;;19.75;;
4704;SDS011;2366;51.332;6.610;2023-04-21T11:58:42;27.73;;;20.63;;
4704;SDS011;2366;51.332;6.610;2023-04-21T12:01:09;31.60;;;21.02;;
4704;SDS011;2366;51.332;6.610;2023-04-21T12:03:35;25.37;;;20.70;;
4704;SDS011;2366;51.332;6.610;2023-04-21T12:06:00;25.80;;;21.30;;
4704;SDS011;2366;51.332;6.610;2023-04-21T12:08:30;26.37;;;19.67;;
4704;SDS011;2366;51.332;6.610;2023-04-21T12:10:55;25.75;;;19.15;;
4704;SDS011;2366;51.332;6.610;2023-04-21T12:13:23;28.95;;;21.20;;
4704;SDS011;2366;51.332;6.610;2023-04-21T12:15:51;28.92;;;20.20;;
4704;SDS011;2366;51.332;6.610;2023-04-21T12:18:16;32.07;;;21.03;;
4704;SDS011;2366;51.332;6.610;2023-04-21T12:20:48;27.83;;;21.40;;
4704;SDS011;2366;51.332;6.610;2023-04-21T12:23:15;24.02;;;19.95;;
4704;SDS011;2366;51.332;6.610;2023-04-21T12:25:40;29.97;;;22.33;;
4704;SDS011;2366;51.332;6.610;2023-04-21T12:28:07;29.07;;;20.40;;
4704;SDS011;2366;51.332;6.610;2023-04-21T12:30:32;25.92;;;21.77;;
4704;SDS011;2366;51.332;6.610;2023-04-21T12:32:58;30.40;;;22.07;;
4704;SDS011;2366;51.332;6.610;2023-04-21T12:35:24;26.37;;;21.43;;
4704;SDS011;2366;51.332;6.610;2023-04-21T12:37:49;29.10;;;21.83;;
4704;SDS011;2366;51.332;6.610;2023-04-21T12:40:15;30.73;;;19.10;;
4704;SDS011;2366;51.332;6.610;2023-04-21T12:42:40;26.60;;;20.73;;
4704;SDS011;2366;51.332;6.610;2023-04-21T12:45:06;31.53;;;23.30;;
4704;SDS011;2366;51.332;6.610;2023-04-21T12:47:32;24.93;;;20.00;;
4704;SDS011;2366;51.332;6.610;2023-04-21T12:49:58;25.00;;;21.40;;
4704;SDS011;2366;51.332;6.610;2023-04-21T12:52:23;27.93;;;21.37;;
4704;SDS011;2366;51.332;6.610;2023-04-21T12:54:48;26.70;;;22.13;;
4704;SDS011;2366;51.332;6.610;2023-04-21T12:57:14;27.13;;;21.80;;
4704;SDS011;2366;51.332;6.610;2023-04-21T12:59:39;25.47;;;20.57;;
4704;SDS011;2366;51.332;6.610;2023-04-21T13:02:06;21.67;;;19.27;;
4704;SDS011;2366;51.332;6.610;2023-04-21T13:04:31;19.23;;;16.57;;
4704;SDS011;2366;51.332;6.610;2023-04-21T13:06:57;17.50;;;15.30;;
4704;SDS011;2366;51.332;6.610;2023-04-21T13:09:22;18.80;;;13.53;;
4704;SDS011;2366;51.332;6.610;2023-04-21T13:11:47;22.47;;;14.87;;
4704;SDS011;2366;51.332;6.610;2023-04-21T13:14:13;20.50;;;18.23;;
4704;SDS011;2366;51.332;6.610;2023-04-21T13:16:39;20.13;;;17.27;;
4704;SDS011;2366;51.332;6.610;2023-04-21T13:19:05;22.40;;;17.70;;
4704;SDS011;2366;51.332;6.610;2023-04-21T13:21:31;16.63;;;13.73;;
4704;SDS011;2366;51.332;6.610;2023-04-21T13:23:56;23.87;;;17.70;;
4704;SDS011;2366;51.332;6.610;2023-04-21T13:26:22;20.00;;;16.47;;
4704;SDS011;2366;51.332;6.610;2023-04-21T13:28:48;18.70;;;16.13;;
4704;SDS011;2366;51.332;6.610;2023-04-21T13:31:14;17.80;;;15.50;;
4704;SDS011;2366;51.332;6.610;2023-04-21T13:33:40;18.57;;;15.20;;
4704;SDS011;2366;51.332;6.610;2023-04-21T13:36:06;19.80;;;15.65;;
4704;SDS011;2366;51.332;6.610;2023-04-21T13:38:33;16.67;;;13.85;;
4704;SDS011;2366;51.332;6.610;2023-04-21T13:40:58;18.07;;;13.40;;
4704;SDS011;2366;51.332;6.610;2023-04-21T13:43:24;15.50;;;13.87;;
4704;SDS011;2366;51.332;6.610;2023-04-21T13:45:50;15.53;;;13.60;;
4704;SDS011;2366;51.332;6.610;2023-04-21T13:48:17;15.83;;;11.43;;
4704;SDS011;2366;51.332;6.610;2023-04-21T13:50:44;16.63;;;12.57;;
4704;SDS011;2366;51.332;6.610;2023-04-21T13:53:09;11.23;;;10.13;;
4704;SDS011;2366;51.332;6.610;2023-04-21T13:55:35;15.27;;;11.33;;
4704;SDS011;2366;51.332;6.610;2023-04-21T13:58:00;16.50;;;12.10;;
4704;SDS011;2366;51.332;6.610;2023-04-21T14:00:26;13.27;;;11.27;;
4704;SDS011;2366;51.332;6.610;2023-04-21T14:02:51;10.43;;;9.40;;
4704;SDS011;2366;51.332;6.610;2023-04-21T14:05:17;13.63;;;9.77;;
4704;SDS011;2366;51.332;6.610;2023-04-21T14:07:42;10.60;;;9.60;;
4704;SDS011;2366;51.332;6.610;2023-04-21T14:10:08;16.20;;;9.03;;
4704;SDS011;2366;51.332;6.610;2023-04-21T14:12:34;8.55;;;7.65;;
4704;SDS011;2366;51.332;6.610;2023-04-21T14:14:59;9.37;;;8.47;;
4704;SDS011;2366;51.332;6.610;2023-04-21T14:17:25;12.13;;;9.60;;
4704;SDS011;2366;51.332;6.610;2023-04-21T14:19:50;10.37;;;7.60;;
4704;SDS011;2366;51.332;6.610;2023-04-21T14:22:16;10.90;;;9.00;;
4704;SDS011;2366;51.332;6.610;2023-04-21T14:24:41;12.27;;;8.63;;
4704;SDS011;2366;51.332;6.610;2023-04-21T14:27:06;8.50;;;7.70;;
4704;SDS011;2366;51.332;6.610;2023-04-21T14:29:32;8.80;;;7.80;;
4704;SDS011;2366;51.332;6.610;2023-04-21T14:31:57;8.37;;;7.57;;
4704;SDS011;2366;51.332;6.610;2023-04-21T14:34:23;14.00;;;7.70;;
4704;SDS011;2366;51.332;6.610;2023-04-21T14:36:52;9.38;;;7.50;;
4704;SDS011;2366;51.332;6.610;2023-04-21T14:39:17;13.20;;;7.40;;
4704;SDS011;2366;51.332;6.610;2023-04-21T14:41:43;11.70;;;6.60;;
4704;SDS011;2366;51.332;6.610;2023-04-21T14:44:08;7.23;;;6.53;;
4704;SDS011;2366;51.332;6.610;2023-04-21T14:46:34;8.30;;;7.60;;
4704;SDS011;2366;51.332;6.610;2023-04-21T14:49:00;14.70;;;8.43;;
4704;SDS011;2366;51.332;6.610;2023-04-21T14:51:25;7.17;;;6.47;;